sensor_id;sensor_type;location;lat;lon;timestamp;P1;durP1;ratioP1;P2;durP2;ratioP2
10041;SDS011;5061;49.068;12.058;2022-07-23T00:01:05;3.40;;;3.00;;
10041;SDS011;5061;49.068;12.058;2022-07-23T00:04:26;5.03;;;3.03;;
10041;SDS011;5061;49.068;12.058;2022-07-23T00:07:49;4.10;;;3.57;;
10041;SDS011;5061;49.068;12.058;2022-07-23T00:11:10;3.70;;;3.10;;
10041;SDS011;5061;49.068;12.058;2022-07-23T00:14:31;3.80;;;3.40;;
10041;SDS011;5061;49.068;12.058;2022-07-23T00:17:51;3.70;;;3.00;;
10041;SDS011;5061;49.068;12.058;2022-07-23T00:21:12;3.03;;;2.73;;
10041;SDS011;5061;49.068;12.058;2022-07-23T00:24:33;3.93;;;3.40;;
10041;SDS011;5061;49.068;12.058;2022-07-23T00:27:54;4.00;;;3.23;;
10041;SDS011;5061;49.068;12.058;2022-07-23T00:31:14;3.63;;;3.30;;
10041;SDS011;5061;49.068;12.058;2022-07-23T00:34:35;3.77;;;3.37;;
10041;SDS011;5061;49.068;12.058;2022-07-23T00:37:56;2.70;;;2.50;;
10041;SDS011;5061;49.068;12.058;2022-07-23T00:41:17;3.80;;;3.30;;
10041;SDS011;5061;49.068;12.058;2022-07-23T00:44:38;3.40;;;3.03;;
10041;SDS011;5061;49.068;12.058;2022-07-23T00:47:59;2.83;;;2.63;;
10041;SDS011;5061;49.068;12.058;2022-07-23T00:51:20;3.30;;;3.00;;
10041;SDS011;5061;49.068;12.058;2022-07-23T00:54:41;2.90;;;2.70;;
10041;SDS011;5061;49.068;12.058;2022-07-23T00:58:02;3.17;;;2.87;;
10041;SDS011;5061;49.068;12.058;2022-07-23T01:01:22;3.33;;;3.03;;
10041;SDS011;5061;49.068;12.058;2022-07-23T01:04:43;3.57;;;3.03;;
10041;SDS011;5061;49.068;12.058;2022-07-23T01:08:05;3.33;;;3.03;;
10041;SDS011;5061;49.068;12.058;2022-07-23T01:11:25;3.37;;;3.07;;
10041;SDS011;5061;49.068;12.058;2022-07-23T01:14:56;3.57;;;3.03;;
10041;SDS011;5061;49.068;12.058;2022-07-23T01:18:18;2.97;;;2.77;;
10041;SDS011;5061;49.068;12.058;2022-07-23T01:21:42;4.43;;;3.40;;
10041;SDS011;5061;49.068;12.058;2022-07-23T01:25:05;3.80;;;3.40;;
10041;SDS011;5061;49.068;12.058;2022-07-23T01:28:26;3.90;;;3.50;;
10041;SDS011;5061;49.068;12.058;2022-07-23T01:31:47;4.93;;;3.73;;
10041;SDS011;5061;49.068;12.058;2022-07-23T01:35:08;3.43;;;3.13;;
10041;SDS011;5061;49.068;12.058;2022-07-23T01:38:29;3.50;;;3.20;;
10041;SDS011;5061;49.068;12.058;2022-07-23T01:41:50;3.30;;;3.00;;
10041;SDS011;5061;49.068;12.058;2022-07-23T01:45:10;2.67;;;2.47;;
10041;SDS011;5061;49.068;12.058;2022-07-23T01:48:31;3.07;;;2.87;;
10041;SDS011;5061;49.068;12.058;2022-07-23T01:51:52;3.70;;;3.20;;
10041;SDS011;5061;49.068;12.058;2022-07-23T01:55:21;2.50;;;2.30;;
10041;SDS011;5061;49.068;12.058;2022-07-23T01:58:42;3.40;;;3.10;;
10041;SDS011;5061;49.068;12.058;2022-07-23T02:02:03;3.93;;;2.90;;
10041;SDS011;5061;49.068;12.058;2022-07-23T02:05:23;3.13;;;2.83;;
10041;SDS011;5061;49.068;12.058;2022-07-23T02:08:44;3.03;;;2.83;;
10041;SDS011;5061;49.068;12.058;2022-07-23T02:12:05;2.70;;;2.50;;
10041;SDS011;5061;49.068;12.058;2022-07-23T02:15:26;4.00;;;3.10;;
10041;SDS011;5061;49.068;12.058;2022-07-23T02:18:48;4.63;;;4.00;;
10041;SDS011;5061;49.068;12.058;2022-07-23T02:22:09;5.23;;;3.70;;
10041;SDS011;5061;49.068;12.058;2022-07-23T02:25:29;3.97;;;3.40;;
10041;SDS011;5061;49.068;12.058;2022-07-23T02:28:50;4.13;;;3.73;;
10041;SDS011;5061;49.068;12.058;2022-07-23T02:32:12;3.87;;;3.57;;
10041;SDS011;5061;49.068;12.058;2022-07-23T02:35:33;4.40;;;4.00;;
10041;SDS011;5061;49.068;12.058;2022-07-23T02:38:54;4.67;;;4.17;;
10041;SDS011;5061;49.068;12.058;2022-07-23T02:42:15;4.10;;;3.70;;
10041;SDS011;5061;49.068;12.058;2022-07-23T02:45:36;6.53;;;3.77;;
10041;SDS011;5061;49.068;12.058;2022-07-23T02:48:56;4.40;;;4.00;;
10041;SDS011;5061;49.068;12.058;2022-07-23T02:52:17;4.93;;;4.30;;
10041;SDS011;5061;49.068;12.058;2022-07-23T02:55:38;5.40;;;3.57;;
10041;SDS011;5061;49.068;12.058;2022-07-23T02:58:58;3.70;;;3.40;;
10041;SDS011;5061;49.068;12.058;2022-07-23T03:02:19;4.10;;;3.80;;
10041;SDS011;5061;49.068;12.058;2022-07-23T03:05:39;7.27;;;3.83;;
10041;SDS011;5061;49.068;12.058;2022-07-23T03:09:00;4.87;;;3.90;;
10041;SDS011;5061;49.068;12.058;2022-07-23T03:12:21;3.30;;;3.00;;
10041;SDS011;5061;49.068;12.058;2022-07-23T03:15:41;3.00;;;2.70;;
10041;SDS011;5061;49.068;12.058;2022-07-23T03:19:02;3.87;;;3.20;;
10041;SDS011;5061;49.068;12.058;2022-07-23T03:22:23;3.60;;;3.30;;
10041;SDS011;5061;49.068;12.058;2022-07-23T03:25:43;3.33;;;2.93;;
10041;SDS011;5061;49.068;12.058;2022-07-23T03:29:04;3.07;;;2.53;;
10041;SDS011;5061;49.068;12.058;2022-07-23T03:32:25;3.17;;;2.87;;
10041;SDS011;5061;49.068;12.058;2022-07-23T03:35:46;2.93;;;2.73;;
10041;SDS011;5061;49.068;12.058;2022-07-23T03:39:07;2.63;;;2.43;;
10041;SDS011;5061;49.068;12.058;2022-07-23T03:42:28;2.70;;;2.50;;
10041;SDS011;5061;49.068;12.058;2022-07-23T03:45:49;2.23;;;1.93;;
10041;SDS011;5061;49.068;12.058;2022-07-23T03:49:09;2.07;;;1.93;;
10041;SDS011;5061;49.068;12.058;2022-07-23T03:52:30;2.03;;;1.83;;
10041;SDS011;5061;49.068;12.058;2022-07-23T03:55:50;1.80;;;1.70;;
10041;SDS011;5061;49.068;12.058;2022-07-23T03:59:11;2.20;;;2.00;;
10041;SDS011;5061;49.068;12.058;2022-07-23T04:02:32;1.80;;;1.70;;
10041;SDS011;5061;49.068;12.058;2022-07-23T04:05:52;1.73;;;1.60;;
10041;SDS011;5061;49.068;12.058;2022-07-23T04:09:13;1.97;;;1.80;;
10041;SDS011;5061;49.068;12.058;2022-07-23T04:12:34;2.00;;;1.90;;
10041;SDS011;5061;49.068;12.058;2022-07-23T04:15:55;2.13;;;1.80;;
10041;SDS011;5061;49.068;12.058;2022-07-23T04:19:16;2.43;;;2.23;;
10041;SDS011;5061;49.068;12.058;2022-07-23T04:22:36;1.87;;;1.77;;
10041;SDS011;5061;49.068;12.058;2022-07-23T04:25:57;2.03;;;1.83;;
10041;SDS011;5061;49.068;12.058;2022-07-23T04:29:18;2.57;;;2.37;;
10041;SDS011;5061;49.068;12.058;2022-07-23T04:32:38;1.77;;;1.67;;
10041;SDS011;5061;49.068;12.058;2022-07-23T04:35:59;2.10;;;1.90;;
10041;SDS011;5061;49.068;12.058;2022-07-23T04:39:19;2.27;;;2.07;;
10041;SDS011;5061;49.068;12.058;2022-07-23T04:42:40;1.97;;;1.70;;
10041;SDS011;5061;49.068;12.058;2022-07-23T04:46:01;2.13;;;1.93;;
10041;SDS011;5061;49.068;12.058;2022-07-23T04:49:21;2.90;;;2.40;;
10041;SDS011;5061;49.068;12.058;2022-07-23T04:52:42;1.70;;;1.60;;
10041;SDS011;5061;49.068;12.058;2022-07-23T04:56:03;2.97;;;2.40;;
10041;SDS011;5061;49.068;12.058;2022-07-23T04:59:24;2.33;;;2.13;;
10041;SDS011;5061;49.068;12.058;2022-07-23T05:02:45;2.57;;;2.37;;
10041;SDS011;5061;49.068;12.058;2022-07-23T05:06:05;3.40;;;2.73;;
10041;SDS011;5061;49.068;12.058;2022-07-23T05:09:26;2.20;;;2.00;;
10041;SDS011;5061;49.068;12.058;2022-07-23T05:12:47;5.43;;;2.40;;
10041;SDS011;5061;49.068;12.058;2022-07-23T05:16:07;2.00;;;1.80;;
10041;SDS011;5061;49.068;12.058;2022-07-23T05:19:28;2.83;;;2.10;;
10041;SDS011;5061;49.068;12.058;2022-07-23T05:22:49;2.80;;;2.20;;
10041;SDS011;5061;49.068;12.058;2022-07-23T05:26:09;2.30;;;2.10;;
10041;SDS011;5061;49.068;12.058;2022-07-23T05:29:30;2.47;;;2.27;;
10041;SDS011;5061;49.068;12.058;2022-07-23T05:32:50;2.30;;;2.10;;
10041;SDS011;5061;49.068;12.058;2022-07-23T05:36:11;2.10;;;1.90;;
10041;SDS011;5061;49.068;12.058;2022-07-23T05:39:32;2.00;;;1.90;;
10041;SDS011;5061;49.068;12.058;2022-07-23T05:42:52;2.00;;;1.80;;
10041;SDS011;5061;49.068;12.058;2022-07-23T05:46:13;1.53;;;1.43;;
10041;SDS011;5061;49.068;12.058;2022-07-23T05:49:34;1.50;;;1.40;;
10041;SDS011;5061;49.068;12.058;2022-07-23T05:52:58;1.40;;;1.30;;
10041;SDS011;5061;49.068;12.058;2022-07-23T05:56:19;1.27;;;1.10;;
10041;SDS011;5061;49.068;12.058;2022-07-23T05:59:40;1.33;;;1.23;;
10041;SDS011;5061;49.068;12.058;2022-07-23T06:03:01;1.20;;;1.10;;
10041;SDS011;5061;49.068;12.058;2022-07-23T06:06:22;1.60;;;1.23;;
10041;SDS011;5061;49.068;12.058;2022-07-23T06:09:42;1.20;;;1.10;;
10041;SDS011;5061;49.068;12.058;2022-07-23T06:13:03;1.17;;;1.07;;
10041;SDS011;5061;49.068;12.058;2022-07-23T06:16:23;1.23;;;1.13;;
10041;SDS011;5061;49.068;12.058;2022-07-23T06:19:44;1.60;;;1.30;;
10041;SDS011;5061;49.068;12.058;2022-07-23T06:23:05;1.30;;;1.20;;
10041;SDS011;5061;49.068;12.058;2022-07-23T06:26:26;1.40;;;1.30;;
10041;SDS011;5061;49.068;12.058;2022-07-23T06:29:46;1.50;;;1.40;;
10041;SDS011;5061;49.068;12.058;2022-07-23T06:33:07;1.97;;;1.67;;
10041;SDS011;5061;49.068;12.058;2022-07-23T06:36:28;1.37;;;1.27;;
10041;SDS011;5061;49.068;12.058;2022-07-23T06:39:49;1.97;;;1.40;;
10041;SDS011;5061;49.068;12.058;2022-07-23T06:43:09;1.40;;;1.30;;
10041;SDS011;5061;49.068;12.058;2022-07-23T06:46:30;1.17;;;1.07;;
10041;SDS011;5061;49.068;12.058;2022-07-23T06:49:51;1.00;;;0.90;;
10041;SDS011;5061;49.068;12.058;2022-07-23T06:53:11;1.50;;;1.40;;
10041;SDS011;5061;49.068;12.058;2022-07-23T06:56:32;1.37;;;1.27;;
10041;SDS011;5061;49.068;12.058;2022-07-23T06:59:53;1.20;;;1.10;;
10041;SDS011;5061;49.068;12.058;2022-07-23T07:03:13;1.23;;;1.13;;
10041;SDS011;5061;49.068;12.058;2022-07-23T07:06:34;1.20;;;1.10;;
10041;SDS011;5061;49.068;12.058;2022-07-23T07:09:55;1.40;;;1.30;;
10041;SDS011;5061;49.068;12.058;2022-07-23T07:13:15;1.10;;;1.00;;
10041;SDS011;5061;49.068;12.058;2022-07-23T07:16:36;1.47;;;1.37;;
10041;SDS011;5061;49.068;12.058;2022-07-23T07:19:57;1.20;;;1.10;;
10041;SDS011;5061;49.068;12.058;2022-07-23T07:23:17;1.30;;;1.20;;
10041;SDS011;5061;49.068;12.058;2022-07-23T07:26:38;1.17;;;1.07;;
10041;SDS011;5061;49.068;12.058;2022-07-23T07:29:59;1.40;;;1.30;;
10041;SDS011;5061;49.068;12.058;2022-07-23T07:33:19;1.60;;;1.50;;
10041;SDS011;5061;49.068;12.058;2022-07-23T07:36:41;1.40;;;1.30;;
10041;SDS011;5061;49.068;12.058;2022-07-23T07:40:03;1.60;;;1.50;;
10041;SDS011;5061;49.068;12.058;2022-07-23T07:43:24;1.70;;;1.60;;
10041;SDS011;5061;49.068;12.058;2022-07-23T07:46:45;1.57;;;1.47;;
10041;SDS011;5061;49.068;12.058;2022-07-23T07:50:06;1.70;;;1.60;;
10041;SDS011;5061;49.068;12.058;2022-07-23T07:53:28;1.63;;;1.53;;
10041;SDS011;5061;49.068;12.058;2022-07-23T07:56:48;1.40;;;1.30;;
10041;SDS011;5061;49.068;12.058;2022-07-23T08:00:09;1.70;;;1.60;;
10041;SDS011;5061;49.068;12.058;2022-07-23T08:03:30;1.73;;;1.63;;
10041;SDS011;5061;49.068;12.058;2022-07-23T08:06:51;2.33;;;2.13;;
10041;SDS011;5061;49.068;12.058;2022-07-23T08:10:12;1.53;;;1.43;;
10041;SDS011;5061;49.068;12.058;2022-07-23T08:13:32;1.80;;;1.70;;
10041;SDS011;5061;49.068;12.058;2022-07-23T08:16:53;1.77;;;1.67;;
10041;SDS011;5061;49.068;12.058;2022-07-23T08:20:15;2.10;;;1.93;;
10041;SDS011;5061;49.068;12.058;2022-07-23T08:23:37;2.23;;;2.03;;
10041;SDS011;5061;49.068;12.058;2022-07-23T08:26:57;2.43;;;1.90;;
10041;SDS011;5061;49.068;12.058;2022-07-23T08:30:18;2.03;;;1.87;;
10041;SDS011;5061;49.068;12.058;2022-07-23T08:33:39;2.90;;;2.13;;
10041;SDS011;5061;49.068;12.058;2022-07-23T08:37:00;2.17;;;1.80;;
10041;SDS011;5061;49.068;12.058;2022-07-23T08:40:20;3.87;;;2.37;;
10041;SDS011;5061;49.068;12.058;2022-07-23T08:43:41;2.10;;;1.90;;
10041;SDS011;5061;49.068;12.058;2022-07-23T08:47:02;2.23;;;2.07;;
10041;SDS011;5061;49.068;12.058;2022-07-23T08:50:23;1.70;;;1.60;;
10041;SDS011;5061;49.068;12.058;2022-07-23T08:53:45;2.40;;;2.20;;
10041;SDS011;5061;49.068;12.058;2022-07-23T08:57:06;2.40;;;2.20;;
10041;SDS011;5061;49.068;12.058;2022-07-23T09:00:27;3.23;;;2.93;;
10041;SDS011;5061;49.068;12.058;2022-07-23T09:03:48;2.23;;;2.03;;
10041;SDS011;5061;49.068;12.058;2022-07-23T09:07:09;1.83;;;1.73;;
10041;SDS011;5061;49.068;12.058;2022-07-23T09:10:31;2.40;;;2.20;;
10041;SDS011;5061;49.068;12.058;2022-07-23T09:14:35;4.47;;;2.80;;
10041;SDS011;5061;49.068;12.058;2022-07-23T09:18:02;2.83;;;2.63;;
10041;SDS011;5061;49.068;12.058;2022-07-23T09:28:24;2.50;;;2.30;;
10041;SDS011;5061;49.068;12.058;2022-07-23T09:35:15;2.30;;;2.10;;
10041;SDS011;5061;49.068;12.058;2022-07-23T09:38:47;2.17;;;2.00;;
10041;SDS011;5061;49.068;12.058;2022-07-23T09:42:14;2.87;;;2.53;;
10041;SDS011;5061;49.068;12.058;2022-07-23T09:45:36;2.63;;;2.43;;
10041;SDS011;5061;49.068;12.058;2022-07-23T09:48:59;2.50;;;2.30;;
10041;SDS011;5061;49.068;12.058;2022-07-23T09:52:44;2.00;;;1.90;;
10041;SDS011;5061;49.068;12.058;2022-07-23T09:56:07;2.60;;;2.27;;
10041;SDS011;5061;49.068;12.058;2022-07-23T09:59:30;2.03;;;1.93;;
10041;SDS011;5061;49.068;12.058;2022-07-23T10:02:53;2.33;;;2.13;;
10041;SDS011;5061;49.068;12.058;2022-07-23T10:06:14;1.90;;;1.80;;
10041;SDS011;5061;49.068;12.058;2022-07-23T10:09:36;2.53;;;2.33;;
10041;SDS011;5061;49.068;12.058;2022-07-23T10:12:58;3.10;;;2.27;;
10041;SDS011;5061;49.068;12.058;2022-07-23T10:16:22;2.00;;;1.90;;
10041;SDS011;5061;49.068;12.058;2022-07-23T10:19:43;1.87;;;1.77;;
10041;SDS011;5061;49.068;12.058;2022-07-23T10:23:10;2.20;;;1.83;;
10041;SDS011;5061;49.068;12.058;2022-07-23T10:26:51;2.00;;;1.87;;
10041;SDS011;5061;49.068;12.058;2022-07-23T10:38:48;1.40;;;1.30;;
10041;SDS011;5061;49.068;12.058;2022-07-23T10:41:46;1.80;;;1.70;;
10041;SDS011;5061;49.068;12.058;2022-07-23T10:48:55;2.87;;;2.43;;
10041;SDS011;5061;49.068;12.058;2022-07-23T11:00:21;1.67;;;1.57;;
10041;SDS011;5061;49.068;12.058;2022-07-23T11:03:42;2.27;;;2.17;;
10041;SDS011;5061;49.068;12.058;2022-07-23T11:07:16;2.00;;;1.90;;
10041;SDS011;5061;49.068;12.058;2022-07-23T11:13:57;2.70;;;2.50;;
10041;SDS011;5061;49.068;12.058;2022-07-23T11:17:19;2.50;;;2.30;;
10041;SDS011;5061;49.068;12.058;2022-07-23T11:20:40;3.50;;;3.20;;
10041;SDS011;5061;49.068;12.058;2022-07-23T11:30:59;2.70;;;2.50;;
10041;SDS011;5061;49.068;12.058;2022-07-23T11:38:08;3.13;;;2.83;;
10041;SDS011;5061;49.068;12.058;2022-07-23T11:41:43;2.80;;;2.50;;
10041;SDS011;5061;49.068;12.058;2022-07-23T11:45:05;2.30;;;2.10;;
10041;SDS011;5061;49.068;12.058;2022-07-23T11:48:28;1.53;;;1.43;;
10041;SDS011;5061;49.068;12.058;2022-07-23T11:52:06;2.63;;;2.07;;
10041;SDS011;5061;49.068;12.058;2022-07-23T11:55:29;5.20;;;2.00;;
10041;SDS011;5061;49.068;12.058;2022-07-23T11:58:54;2.80;;;2.47;;
10041;SDS011;5061;49.068;12.058;2022-07-23T12:02:19;2.33;;;2.13;;
10041;SDS011;5061;49.068;12.058;2022-07-23T12:05:40;3.20;;;2.57;;
10041;SDS011;5061;49.068;12.058;2022-07-23T12:09:01;2.37;;;2.17;;
10041;SDS011;5061;49.068;12.058;2022-07-23T12:12:22;3.23;;;2.50;;
10041;SDS011;5061;49.068;12.058;2022-07-23T12:15:44;2.10;;;1.90;;
10041;SDS011;5061;49.068;12.058;2022-07-23T12:19:07;2.03;;;1.90;;
10041;SDS011;5061;49.068;12.058;2022-07-23T12:22:33;2.77;;;2.10;;
10041;SDS011;5061;49.068;12.058;2022-07-23T12:26:05;2.20;;;2.00;;
10041;SDS011;5061;49.068;12.058;2022-07-23T12:29:33;2.30;;;2.07;;
10041;SDS011;5061;49.068;12.058;2022-07-23T12:32:57;1.87;;;1.77;;
10041;SDS011;5061;49.068;12.058;2022-07-23T12:36:18;2.03;;;1.90;;
10041;SDS011;5061;49.068;12.058;2022-07-23T12:39:39;1.47;;;1.37;;
10041;SDS011;5061;49.068;12.058;2022-07-23T12:43:05;1.50;;;1.40;;
10041;SDS011;5061;49.068;12.058;2022-07-23T12:46:27;1.57;;;1.47;;
10041;SDS011;5061;49.068;12.058;2022-07-23T12:49:53;1.50;;;1.30;;
10041;SDS011;5061;49.068;12.058;2022-07-23T12:53:15;1.77;;;1.50;;
10041;SDS011;5061;49.068;12.058;2022-07-23T12:56:46;2.20;;;2.00;;
10041;SDS011;5061;49.068;12.058;2022-07-23T13:00:08;1.50;;;1.40;;
10041;SDS011;5061;49.068;12.058;2022-07-23T13:03:34;2.30;;;2.10;;
10041;SDS011;5061;49.068;12.058;2022-07-23T13:06:59;1.70;;;1.53;;
10041;SDS011;5061;49.068;12.058;2022-07-23T13:10:21;1.83;;;1.40;;
10041;SDS011;5061;49.068;12.058;2022-07-23T13:13:42;1.60;;;1.50;;
10041;SDS011;5061;49.068;12.058;2022-07-23T13:17:02;1.60;;;1.50;;
10041;SDS011;5061;49.068;12.058;2022-07-23T13:20:23;1.50;;;1.40;;
10041;SDS011;5061;49.068;12.058;2022-07-23T13:23:44;1.40;;;1.30;;
10041;SDS011;5061;49.068;12.058;2022-07-23T13:27:05;1.97;;;1.50;;
10041;SDS011;5061;49.068;12.058;2022-07-23T13:30:28;1.80;;;1.70;;
10041;SDS011;5061;49.068;12.058;2022-07-23T13:33:48;1.20;;;1.10;;
10041;SDS011;5061;49.068;12.058;2022-07-23T13:37:09;1.40;;;1.30;;
10041;SDS011;5061;49.068;12.058;2022-07-23T13:40:30;1.20;;;1.10;;
10041;SDS011;5061;49.068;12.058;2022-07-23T13:43:51;1.80;;;1.50;;
10041;SDS011;5061;49.068;12.058;2022-07-23T13:47:11;1.40;;;1.30;;
10041;SDS011;5061;49.068;12.058;2022-07-23T13:50:33;5.10;;;1.70;;
10041;SDS011;5061;49.068;12.058;2022-07-23T13:53:54;1.20;;;1.10;;
10041;SDS011;5061;49.068;12.058;2022-07-23T13:57:15;2.10;;;1.90;;
10041;SDS011;5061;49.068;12.058;2022-07-23T14:00:37;1.60;;;1.50;;
10041;SDS011;5061;49.068;12.058;2022-07-23T14:04:00;1.73;;;1.63;;
10041;SDS011;5061;49.068;12.058;2022-07-23T14:07:20;1.80;;;1.70;;
10041;SDS011;5061;49.068;12.058;2022-07-23T14:10:41;2.43;;;2.23;;
10041;SDS011;5061;49.068;12.058;2022-07-23T14:14:02;3.07;;;2.77;;
10041;SDS011;5061;49.068;12.058;2022-07-23T14:17:22;2.90;;;2.60;;
10041;SDS011;5061;49.068;12.058;2022-07-23T14:20:43;2.43;;;2.23;;
10041;SDS011;5061;49.068;12.058;2022-07-23T14:24:03;2.00;;;1.90;;
10041;SDS011;5061;49.068;12.058;2022-07-23T14:27:25;2.47;;;2.27;;
10041;SDS011;5061;49.068;12.058;2022-07-23T14:30:47;2.33;;;2.07;;
10041;SDS011;5061;49.068;12.058;2022-07-23T14:34:08;2.07;;;1.90;;
10041;SDS011;5061;49.068;12.058;2022-07-23T14:37:28;2.20;;;2.00;;
10041;SDS011;5061;49.068;12.058;2022-07-23T14:40:49;2.20;;;2.00;;
10041;SDS011;5061;49.068;12.058;2022-07-23T14:44:10;2.80;;;2.33;;
10041;SDS011;5061;49.068;12.058;2022-07-23T14:47:30;2.63;;;2.43;;
10041;SDS011;5061;49.068;12.058;2022-07-23T14:50:51;2.23;;;2.03;;
10041;SDS011;5061;49.068;12.058;2022-07-23T14:54:12;2.40;;;2.20;;
10041;SDS011;5061;49.068;12.058;2022-07-23T14:57:33;1.87;;;1.77;;
10041;SDS011;5061;49.068;12.058;2022-07-23T15:00:54;2.37;;;2.17;;
10041;SDS011;5061;49.068;12.058;2022-07-23T15:04:15;1.73;;;1.23;;
10041;SDS011;5061;49.068;12.058;2022-07-23T15:07:36;1.60;;;1.50;;
10041;SDS011;5061;49.068;12.058;2022-07-23T15:10:56;2.00;;;1.70;;
10041;SDS011;5061;49.068;12.058;2022-07-23T15:14:17;1.53;;;1.43;;
10041;SDS011;5061;49.068;12.058;2022-07-23T15:17:38;1.63;;;1.53;;
10041;SDS011;5061;49.068;12.058;2022-07-23T15:20:59;1.50;;;1.40;;
10041;SDS011;5061;49.068;12.058;2022-07-23T15:24:21;1.93;;;1.83;;
10041;SDS011;5061;49.068;12.058;2022-07-23T15:27:41;2.20;;;2.00;;
10041;SDS011;5061;49.068;12.058;2022-07-23T15:31:02;2.00;;;1.83;;
10041;SDS011;5061;49.068;12.058;2022-07-23T15:34:24;2.10;;;1.90;;
10041;SDS011;5061;49.068;12.058;2022-07-23T15:37:46;2.33;;;1.90;;
10041;SDS011;5061;49.068;12.058;2022-07-23T15:41:06;2.50;;;2.30;;
10041;SDS011;5061;49.068;12.058;2022-07-23T15:44:27;2.73;;;2.53;;
10041;SDS011;5061;49.068;12.058;2022-07-23T15:47:48;2.97;;;2.77;;
10041;SDS011;5061;49.068;12.058;2022-07-23T15:51:09;2.47;;;2.27;;
10041;SDS011;5061;49.068;12.058;2022-07-23T15:54:29;5.50;;;3.03;;
10041;SDS011;5061;49.068;12.058;2022-07-23T15:57:51;3.70;;;3.23;;
10041;SDS011;5061;49.068;12.058;2022-07-23T16:01:11;3.57;;;3.27;;
10041;SDS011;5061;49.068;12.058;2022-07-23T16:04:33;3.03;;;2.83;;
10041;SDS011;5061;49.068;12.058;2022-07-23T16:07:53;3.17;;;2.60;;
10041;SDS011;5061;49.068;12.058;2022-07-23T16:11:14;2.50;;;2.30;;
10041;SDS011;5061;49.068;12.058;2022-07-23T16:14:35;3.13;;;2.83;;
10041;SDS011;5061;49.068;12.058;2022-07-23T16:17:56;2.40;;;2.13;;
10041;SDS011;5061;49.068;12.058;2022-07-23T16:21:17;3.40;;;3.10;;
10041;SDS011;5061;49.068;12.058;2022-07-23T16:24:38;2.57;;;2.37;;
10041;SDS011;5061;49.068;12.058;2022-07-23T16:27:59;4.50;;;2.90;;
10041;SDS011;5061;49.068;12.058;2022-07-23T16:31:19;3.00;;;2.80;;
10041;SDS011;5061;49.068;12.058;2022-07-23T16:34:40;2.80;;;2.60;;
10041;SDS011;5061;49.068;12.058;2022-07-23T16:38:01;3.40;;;3.10;;
10041;SDS011;5061;49.068;12.058;2022-07-23T16:41:22;3.27;;;2.80;;
10041;SDS011;5061;49.068;12.058;2022-07-23T16:44:43;2.70;;;2.50;;
10041;SDS011;5061;49.068;12.058;2022-07-23T16:48:04;2.17;;;2.03;;
10041;SDS011;5061;49.068;12.058;2022-07-23T16:51:24;2.93;;;2.40;;
10041;SDS011;5061;49.068;12.058;2022-07-23T16:54:45;2.47;;;2.27;;
10041;SDS011;5061;49.068;12.058;2022-07-23T16:58:06;2.70;;;2.50;;
10041;SDS011;5061;49.068;12.058;2022-07-23T17:01:26;1.90;;;1.80;;
10041;SDS011;5061;49.068;12.058;2022-07-23T17:04:47;2.30;;;2.10;;
10041;SDS011;5061;49.068;12.058;2022-07-23T17:08:08;2.47;;;2.27;;
10041;SDS011;5061;49.068;12.058;2022-07-23T17:11:28;1.90;;;1.80;;
10041;SDS011;5061;49.068;12.058;2022-07-23T17:14:49;1.53;;;1.43;;
10041;SDS011;5061;49.068;12.058;2022-07-23T17:18:10;3.27;;;2.00;;
10041;SDS011;5061;49.068;12.058;2022-07-23T17:21:32;1.70;;;1.60;;
10041;SDS011;5061;49.068;12.058;2022-07-23T17:24:53;1.63;;;1.53;;
10041;SDS011;5061;49.068;12.058;2022-07-23T17:28:14;1.70;;;1.60;;
10041;SDS011;5061;49.068;12.058;2022-07-23T17:31:34;2.30;;;2.10;;
10041;SDS011;5061;49.068;12.058;2022-07-23T17:34:55;1.70;;;1.60;;
10041;SDS011;5061;49.068;12.058;2022-07-23T17:38:16;1.50;;;1.40;;
10041;SDS011;5061;49.068;12.058;2022-07-23T17:41:36;1.80;;;1.70;;
10041;SDS011;5061;49.068;12.058;2022-07-23T17:44:58;2.10;;;1.90;;
10041;SDS011;5061;49.068;12.058;2022-07-23T17:48:18;1.93;;;1.83;;
10041;SDS011;5061;49.068;12.058;2022-07-23T17:51:39;1.83;;;1.73;;
10041;SDS011;5061;49.068;12.058;2022-07-23T17:55:00;1.90;;;1.80;;
10041;SDS011;5061;49.068;12.058;2022-07-23T17:58:20;3.03;;;1.80;;
10041;SDS011;5061;49.068;12.058;2022-07-23T18:01:41;3.33;;;3.00;;
10041;SDS011;5061;49.068;12.058;2022-07-23T18:05:02;3.90;;;3.23;;
10041;SDS011;5061;49.068;12.058;2022-07-23T18:08:23;3.10;;;2.33;;
10041;SDS011;5061;49.068;12.058;2022-07-23T18:11:44;3.47;;;3.17;;
10041;SDS011;5061;49.068;12.058;2022-07-23T18:15:05;3.27;;;2.97;;
10041;SDS011;5061;49.068;12.058;2022-07-23T18:18:26;3.60;;;3.30;;
10041;SDS011;5061;49.068;12.058;2022-07-23T18:21:48;3.17;;;2.87;;
10041;SDS011;5061;49.068;12.058;2022-07-23T18:25:09;3.60;;;3.30;;
10041;SDS011;5061;49.068;12.058;2022-07-23T18:28:31;3.97;;;3.60;;
10041;SDS011;5061;49.068;12.058;2022-07-23T18:31:52;2.90;;;2.70;;
10041;SDS011;5061;49.068;12.058;2022-07-23T18:35:13;3.47;;;3.17;;
10041;SDS011;5061;49.068;12.058;2022-07-23T18:38:34;3.13;;;2.80;;
10041;SDS011;5061;49.068;12.058;2022-07-23T18:41:54;3.27;;;2.97;;
10041;SDS011;5061;49.068;12.058;2022-07-23T18:45:15;2.77;;;2.57;;
10041;SDS011;5061;49.068;12.058;2022-07-23T18:48:36;2.70;;;2.50;;
10041;SDS011;5061;49.068;12.058;2022-07-23T18:51:57;3.13;;;2.83;;
10041;SDS011;5061;49.068;12.058;2022-07-23T18:55:19;2.90;;;2.53;;
10041;SDS011;5061;49.068;12.058;2022-07-23T18:58:39;3.13;;;2.83;;
10041;SDS011;5061;49.068;12.058;2022-07-23T19:02:00;2.63;;;2.43;;
10041;SDS011;5061;49.068;12.058;2022-07-23T19:05:21;2.53;;;2.23;;
10041;SDS011;5061;49.068;12.058;2022-07-23T19:08:42;2.37;;;2.17;;
10041;SDS011;5061;49.068;12.058;2022-07-23T19:12:03;3.20;;;2.90;;
10041;SDS011;5061;49.068;12.058;2022-07-23T19:15:24;3.53;;;3.23;;
10041;SDS011;5061;49.068;12.058;2022-07-23T19:18:44;3.23;;;2.93;;
10041;SDS011;5061;49.068;12.058;2022-07-23T19:22:05;3.10;;;2.90;;
10041;SDS011;5061;49.068;12.058;2022-07-23T19:25:29;3.40;;;3.10;;
10041;SDS011;5061;49.068;12.058;2022-07-23T19:28:50;3.73;;;3.07;;
10041;SDS011;5061;49.068;12.058;2022-07-23T19:32:11;3.47;;;3.17;;
10041;SDS011;5061;49.068;12.058;2022-07-23T19:35:33;2.90;;;2.33;;
10041;SDS011;5061;49.068;12.058;2022-07-23T19:38:54;3.70;;;3.40;;
10041;SDS011;5061;49.068;12.058;2022-07-23T19:42:14;3.37;;;3.07;;
10041;SDS011;5061;49.068;12.058;2022-07-23T19:45:36;3.10;;;2.80;;
10041;SDS011;5061;49.068;12.058;2022-07-23T19:48:57;3.43;;;3.13;;
10041;SDS011;5061;49.068;12.058;2022-07-23T19:52:18;4.53;;;3.77;;
10041;SDS011;5061;49.068;12.058;2022-07-23T19:55:39;3.17;;;2.87;;
10041;SDS011;5061;49.068;12.058;2022-07-23T19:59:00;3.03;;;2.83;;
10041;SDS011;5061;49.068;12.058;2022-07-23T20:02:21;2.83;;;2.50;;
10041;SDS011;5061;49.068;12.058;2022-07-23T20:05:42;2.70;;;2.27;;
10041;SDS011;5061;49.068;12.058;2022-07-23T20:09:04;2.27;;;2.03;;
10041;SDS011;5061;49.068;12.058;2022-07-23T20:12:25;1.70;;;1.60;;
10041;SDS011;5061;49.068;12.058;2022-07-23T20:15:46;1.57;;;1.47;;
10041;SDS011;5061;49.068;12.058;2022-07-23T20:19:09;1.73;;;1.63;;
10041;SDS011;5061;49.068;12.058;2022-07-23T20:22:30;2.17;;;1.97;;
10041;SDS011;5061;49.068;12.058;2022-07-23T20:25:51;1.83;;;1.73;;
10041;SDS011;5061;49.068;12.058;2022-07-23T20:29:14;2.60;;;2.40;;
10041;SDS011;5061;49.068;12.058;2022-07-23T20:32:35;2.20;;;2.00;;
10041;SDS011;5061;49.068;12.058;2022-07-23T20:35:58;3.57;;;2.80;;
10041;SDS011;5061;49.068;12.058;2022-07-23T20:39:20;3.43;;;2.70;;
10041;SDS011;5061;49.068;12.058;2022-07-23T20:42:40;2.60;;;2.40;;
10041;SDS011;5061;49.068;12.058;2022-07-23T20:46:01;3.63;;;3.10;;
10041;SDS011;5061;49.068;12.058;2022-07-23T20:49:21;4.47;;;4.07;;
10041;SDS011;5061;49.068;12.058;2022-07-23T20:52:42;4.13;;;3.53;;
10041;SDS011;5061;49.068;12.058;2022-07-23T20:56:03;4.17;;;3.77;;
10041;SDS011;5061;49.068;12.058;2022-07-23T20:59:24;4.53;;;4.13;;